createdAt,value
2023-05-05T00:06:15.186Z,72.5
2023-05-05T00:21:49.078Z,72.3
2023-05-05T00:37:23.101Z,73.3
2023-05-05T00:52:57.103Z,74.1
2023-05-05T01:08:31.148Z,75.3
2023-05-05T01:24:05.164Z,76.7
2023-05-05T01:39:39.155Z,77.5
2023-05-05T01:55:13.134Z,78.6
2023-05-05T02:10:47.124Z,78.3
2023-05-05T02:26:21.105Z,78.1
2023-05-05T02:41:55.099Z,80
2023-05-05T02:57:29.080Z,79.6
2023-05-05T03:13:03.217Z,79.7
2023-05-05T03:28:37.142Z,80.3
2023-05-05T03:44:11.118Z,81.4
2023-05-05T03:59:45.125Z,80.6
2023-05-05T04:15:19.162Z,81.1
2023-05-05T04:30:53.290Z,80.8
2023-05-05T04:46:27.579Z,80.4
2023-05-05T05:02:05.148Z,79
2023-05-05T05:17:39.253Z,75.6
2023-05-05T05:33:13.592Z,72
2023-05-05T05:48:47.641Z,72.8
2023-05-05T06:04:22.052Z,70.1
2023-05-05T06:19:56.156Z,66.2
2023-05-05T06:35:30.251Z,63.8
2023-05-05T06:51:04.919Z,57.1
2023-05-05T07:06:39.613Z,52.6
2023-05-05T07:22:14.210Z,52.2
2023-05-05T07:37:48.823Z,49.2
2023-05-05T07:53:37.725Z,47.6
2023-05-05T08:09:12.578Z,44.1
2023-05-05T08:24:47.121Z,42.9
2023-05-05T08:40:22.108Z,41.1
2023-05-05T08:55:56.846Z,39.5
2023-05-05T09:11:31.596Z,37.8
2023-05-05T09:27:06.165Z,38
2023-05-05T09:42:41.088Z,37.2
2023-05-05T09:58:15.907Z,36.9
2023-05-05T10:13:50.779Z,35.2
2023-05-05T10:29:25.426Z,35.1
2023-05-05T10:45:00.218Z,33.4
2023-05-05T11:00:35.384Z,34
2023-05-05T11:16:10.198Z,33.2
2023-05-05T11:31:44.902Z,33.6
2023-05-05T11:47:19.693Z,31.4
2023-05-05T12:02:54.802Z,31.2
2023-05-05T12:18:30.299Z,32
2023-05-05T12:34:05.067Z,32.2
2023-05-05T12:49:39.758Z,32.4
2023-05-05T13:05:14.364Z,33.3
2023-05-05T13:20:48.994Z,34
2023-05-05T13:36:23.727Z,35
2023-05-05T13:51:58.498Z,35.8
2023-05-05T14:07:33.202Z,36.7
2023-05-05T14:23:07.716Z,36.9
2023-05-05T14:38:42.355Z,38.2
2023-05-05T14:54:29.689Z,39.5
2023-05-05T15:10:04.994Z,37.6
2023-05-05T15:25:39.976Z,38.9
2023-05-05T15:41:17.189Z,40.3
2023-05-05T15:56:51.862Z,42.4
2023-05-05T16:12:26.817Z,43.8
2023-05-05T16:28:01.554Z,47.6
2023-05-05T16:43:36.102Z,52
2023-05-05T16:59:11.078Z,50.4
2023-05-05T17:14:45.694Z,50.4
2023-05-05T17:30:20.084Z,51.4
2023-05-05T17:45:55.054Z,51
2023-05-05T18:01:29.922Z,51.9
2023-05-05T18:17:04.309Z,53.2
2023-05-05T18:32:39.360Z,56.1
2023-05-05T18:48:14.004Z,57.2
2023-05-05T19:03:48.710Z,60.8
2023-05-05T19:19:23.603Z,70.1
2023-05-05T19:34:58.383Z,72.5
2023-05-05T19:50:33.020Z,74.2
2023-05-05T20:06:07.328Z,83.3
2023-05-05T20:21:41.789Z,86.6
2023-05-05T20:37:16.742Z,87
2023-05-05T20:52:51.272Z,86.8
2023-05-05T21:08:27.463Z,87.9
2023-05-05T21:24:01.843Z,87.5
2023-05-05T21:39:36.162Z,87.7
2023-05-05T21:55:10.386Z,88
2023-05-05T22:10:44.832Z,87.9
2023-05-05T22:26:19.304Z,87.9
2023-05-05T22:41:53.618Z,88.2
2023-05-05T22:57:27.902Z,90.2
2023-05-05T23:13:02.631Z,91
2023-05-05T23:28:37.061Z,90.5
2023-05-05T23:44:11.626Z,91.3
2023-05-05T23:59:46.730Z,91.2
